Levita, Texas
Current Conditions -  °F | °C
As of 1:35 PM on Tuesday 21 Oct 2014 (Local Time) from KGOP Reporting Station
Clear Clear  
Wind Chill: 77°   Ceiling: Unl
Heat Index: 79°   Visibility: 10mi
Dew Point: 59°   Wind: 0mph
Humidity: 54%   Direction: NA
Pressure: 30.09"   Gusts: NA
Location:  31.392°N, 97.7452°W
Report Text: KGOP 211835Z AUTO 00000KT 10SM CLR 25/15 A3009 RMK AO2
Loading
Personal Weather Stations






























Interactive Weather Map
Tropical Storm Tracking
New forecast layout! Learn more

10-Day Weather Forecast

Advertisements
Track Severe Weather on mobile